createdAt,value
2023-04-27T00:01:00.317Z,11.70
2023-04-27T00:03:27.387Z,11.95
2023-04-27T00:05:53.989Z,12.45
2023-04-27T00:08:20.466Z,10.52
2023-04-27T00:10:46.839Z,11.25
2023-04-27T00:13:13.182Z,10.52
2023-04-27T00:15:39.599Z,10.48
2023-04-27T00:18:06.189Z,10.20
2023-04-27T00:20:33.817Z,9.95
2023-04-27T00:23:00.248Z,10.52
2023-04-27T00:25:26.686Z,12.90
2023-04-27T00:27:53.206Z,11.68
2023-04-27T00:30:20.092Z,11.60
2023-04-27T00:32:46.594Z,11.23
2023-04-27T00:35:13.113Z,11.98
2023-04-27T00:37:39.625Z,16.50
2023-04-27T00:40:07.831Z,11.82
2023-04-27T00:42:34.918Z,11.30
2023-04-27T00:45:01.563Z,11.45
2023-04-27T00:47:30.076Z,12.40
2023-04-27T00:49:56.610Z,13.65
2023-04-27T00:52:23.018Z,12.25
2023-04-27T00:54:52.729Z,12.55
2023-04-27T00:57:19.158Z,13.10
2023-04-27T00:59:46.109Z,13.57
2023-04-27T01:02:13.583Z,13.13
2023-04-27T01:04:40.931Z,14.50
2023-04-27T01:07:07.302Z,18.23
2023-04-27T01:09:33.644Z,13.65
2023-04-27T01:11:59.988Z,14.10
2023-04-27T01:14:26.326Z,13.02
2023-04-27T01:16:52.742Z,12.80
2023-04-27T01:19:19.115Z,14.13
2023-04-27T01:21:45.614Z,13.15
2023-04-27T01:24:12.058Z,13.20
2023-04-27T01:26:38.386Z,12.75
2023-04-27T01:29:04.714Z,13.35
2023-04-27T01:31:31.236Z,13.57
2023-04-27T01:33:57.621Z,12.50
2023-04-27T01:36:24.025Z,13.07
2023-04-27T01:38:51.121Z,12.65
2023-04-27T01:41:17.526Z,11.63
2023-04-27T01:43:43.877Z,13.38
2023-04-27T01:46:12.880Z,12.07
2023-04-27T01:48:40.395Z,12.15
2023-04-27T01:51:07.142Z,12.75
2023-04-27T01:53:34.302Z,12.60
2023-04-27T01:56:00.745Z,13.77
2023-04-27T01:58:27.764Z,12.65
2023-04-27T02:00:54.196Z,12.30
2023-04-27T02:03:20.625Z,13.77
2023-04-27T02:05:47.929Z,12.82
2023-04-27T02:08:14.432Z,12.45
2023-04-27T02:10:41.082Z,12.10
2023-04-27T02:13:07.522Z,12.23
2023-04-27T02:15:35.286Z,13.02
2023-04-27T02:18:03.278Z,12.48
2023-04-27T02:20:33.179Z,12.27
2023-04-27T02:22:59.594Z,12.57
2023-04-27T02:25:25.958Z,12.25
2023-04-27T02:27:52.330Z,11.80
2023-04-27T02:30:19.335Z,13.23
2023-04-27T02:32:46.464Z,12.93
2023-04-27T02:35:13.034Z,13.23
2023-04-27T02:37:39.456Z,13.82
2023-04-27T02:40:07.939Z,14.68
2023-04-27T02:42:34.300Z,13.57
2023-04-27T02:45:00.733Z,14.25
2023-04-27T02:47:27.326Z,12.85
2023-04-27T02:49:53.653Z,14.35
2023-04-27T02:52:20.020Z,13.55
2023-04-27T02:54:46.354Z,14.75
2023-04-27T02:57:12.680Z,13.93
2023-04-27T02:59:39.466Z,12.35
2023-04-27T03:02:05.859Z,12.43
2023-04-27T03:04:32.248Z,12.05
2023-04-27T03:06:58.681Z,10.77
2023-04-27T03:09:25.177Z,12.02
2023-04-27T03:11:51.546Z,11.57
2023-04-27T03:14:17.842Z,12.45
2023-04-27T03:16:44.194Z,11.65
2023-04-27T03:19:10.627Z,15.65
2023-04-27T03:21:37.050Z,14.05
2023-04-27T03:24:03.659Z,11.80
2023-04-27T03:26:30.050Z,12.60
2023-04-27T03:28:56.355Z,13.52
2023-04-27T03:31:22.847Z,11.35
2023-04-27T03:33:49.388Z,11.57
2023-04-27T03:36:15.927Z,12.38
2023-04-27T03:38:42.380Z,12.38
2023-04-27T03:41:08.785Z,12.90
2023-04-27T03:43:35.119Z,13.32
2023-04-27T03:46:01.585Z,13.88
2023-04-27T03:48:28.007Z,13.05
2023-04-27T03:50:54.326Z,12.90
2023-04-27T03:53:20.659Z,13.88
2023-04-27T03:55:47.665Z,14.10
2023-04-27T03:58:14.085Z,14.50
2023-04-27T04:00:40.691Z,13.65
2023-04-27T04:03:07.793Z,14.10
2023-04-27T04:05:34.791Z,15.43
2023-04-27T04:08:01.176Z,14.43
2023-04-27T04:10:27.759Z,15.38
2023-04-27T04:12:54.182Z,14.48
2023-04-27T04:15:20.705Z,14.10
2023-04-27T04:17:47.627Z,13.88
2023-04-27T04:20:14.134Z,14.73
2023-04-27T04:22:40.527Z,14.68
2023-04-27T04:25:07.704Z,15.18
2023-04-27T04:27:34.022Z,15.80
2023-04-27T04:30:00.714Z,16.80
2023-04-27T04:32:30.016Z,16.05
2023-04-27T04:34:56.997Z,17.33
2023-04-27T04:37:23.564Z,15.98
2023-04-27T04:39:50.236Z,17.33
2023-04-27T04:42:16.641Z,16.55
2023-04-27T04:44:43.011Z,18.10
2023-04-27T04:47:12.273Z,18.17
2023-04-27T04:49:38.627Z,17.15
2023-04-27T04:52:05.215Z,17.45
2023-04-27T04:54:31.686Z,17.00
2023-04-27T04:57:03.401Z,17.73
2023-04-27T04:59:33.998Z,16.73
2023-04-27T05:02:00.685Z,16.92
2023-04-27T05:04:27.542Z,17.63
2023-04-27T05:06:54.013Z,18.20
2023-04-27T05:09:20.439Z,17.25
2023-04-27T05:11:46.803Z,17.88
2023-04-27T05:14:13.214Z,17.58
2023-04-27T05:16:39.629Z,18.52
2023-04-27T05:19:07.166Z,16.60
2023-04-27T05:21:33.628Z,17.85
2023-04-27T05:24:02.741Z,19.45
2023-04-27T05:26:29.105Z,18.58
2023-04-27T05:28:55.574Z,19.15
2023-04-27T05:31:22.345Z,17.58
2023-04-27T05:33:49.928Z,17.73
2023-04-27T05:36:16.527Z,16.13
2023-04-27T05:38:43.357Z,17.75
2023-04-27T05:41:09.838Z,18.83
2023-04-27T05:43:38.734Z,17.30
2023-04-27T05:46:05.445Z,18.83
2023-04-27T05:48:31.849Z,18.38
2023-04-27T05:51:03.413Z,19.10
2023-04-27T05:53:30.853Z,17.02
2023-04-27T05:56:01.182Z,17.83
2023-04-27T05:58:27.774Z,17.73
2023-04-27T06:00:54.681Z,17.92
2023-04-27T06:03:21.811Z,18.88
2023-04-27T06:05:54.970Z,18.42
2023-04-27T06:08:26.921Z,19.27
2023-04-27T06:10:53.855Z,18.38
2023-04-27T06:13:20.394Z,18.42
2023-04-27T06:15:46.918Z,20.00
2023-04-27T06:18:13.793Z,20.30
2023-04-27T06:20:40.433Z,17.92
2023-04-27T06:23:07.128Z,18.98
2023-04-27T06:25:34.595Z,18.63
2023-04-27T06:28:01.221Z,19.02
2023-04-27T06:30:27.843Z,18.85
2023-04-27T06:32:54.251Z,20.30
2023-04-27T06:35:21.761Z,20.13
2023-04-27T06:37:48.130Z,21.38
2023-04-27T06:40:14.744Z,19.10
2023-04-27T06:42:41.128Z,20.55
2023-04-27T06:45:07.948Z,21.10
2023-04-27T06:47:34.322Z,19.90
2023-04-27T06:50:00.672Z,21.48
2023-04-27T06:52:27.220Z,19.40
2023-04-27T06:54:54.125Z,21.80
2023-04-27T06:57:20.447Z,22.40
2023-04-27T06:59:46.813Z,20.85
2023-04-27T07:02:13.343Z,15.32
2023-04-27T07:04:39.985Z,16.73
2023-04-27T07:07:06.340Z,17.13
2023-04-27T07:09:32.907Z,14.85
2023-04-27T07:12:01.111Z,13.38
2023-04-27T07:14:27.443Z,13.98
2023-04-27T07:16:53.805Z,13.98
2023-04-27T07:19:20.386Z,15.10
2023-04-27T07:21:47.990Z,14.98
2023-04-27T07:24:14.703Z,14.13
2023-04-27T07:26:41.362Z,17.08
2023-04-27T07:29:22.888Z,11.70
2023-04-27T07:34:19.442Z,13.05
2023-04-27T07:36:45.909Z,11.38
2023-04-27T07:39:12.791Z,13.18
2023-04-27T07:41:39.354Z,11.50
2023-04-27T07:44:05.678Z,10.98
2023-04-27T07:46:32.306Z,11.27
2023-04-27T07:48:59.887Z,10.75
2023-04-27T07:51:28.634Z,11.32
2023-04-27T07:53:55.595Z,10.70
2023-04-27T07:56:22.063Z,11.20
2023-04-27T07:58:48.394Z,11.10
2023-04-27T08:01:14.778Z,12.68
2023-04-27T08:03:41.354Z,12.15
2023-04-27T08:06:08.237Z,12.00
2023-04-27T08:08:34.987Z,12.70
2023-04-27T08:11:01.755Z,13.45
2023-04-27T08:13:28.194Z,12.98
2023-04-27T08:15:58.388Z,12.80
2023-04-27T08:18:25.724Z,12.55
2023-04-27T08:20:52.555Z,14.98
2023-04-27T08:23:18.985Z,13.68
2023-04-27T08:25:45.440Z,16.45
2023-04-27T08:28:13.256Z,13.65
2023-04-27T08:30:39.656Z,14.38
2023-04-27T08:33:06.175Z,15.43
2023-04-27T08:35:32.566Z,14.20
2023-04-27T08:38:01.329Z,15.25
2023-04-27T08:40:29.489Z,13.88
2023-04-27T08:43:01.006Z,10.57
2023-04-27T08:45:28.563Z,10.75
2023-04-27T08:47:54.943Z,10.65
2023-04-27T08:50:24.092Z,10.80
2023-04-27T08:52:51.920Z,11.68
2023-04-27T08:55:18.472Z,12.45
2023-04-27T08:57:58.179Z,10.82
2023-04-27T09:00:25.969Z,11.27
2023-04-27T09:02:52.824Z,8.98
2023-04-27T09:05:22.080Z,8.70
2023-04-27T09:08:08.002Z,9.90
2023-04-27T09:10:47.874Z,11.02
2023-04-27T09:13:14.672Z,9.10
2023-04-27T09:15:48.606Z,8.93
2023-04-27T09:18:19.927Z,8.95
2023-04-27T09:20:48.893Z,14.32
2023-04-27T09:23:34.922Z,9.35
2023-04-27T09:26:05.695Z,8.50
2023-04-27T09:28:32.403Z,8.68
2023-04-27T09:31:00.709Z,10.00
2023-04-27T09:33:28.400Z,10.13
2023-04-27T09:35:56.579Z,7.65
2023-04-27T09:38:23.735Z,7.88
2023-04-27T09:40:52.594Z,8.35
2023-04-27T09:43:19.339Z,11.38
2023-04-27T09:45:46.337Z,10.15
2023-04-27T09:48:13.658Z,11.57
2023-04-27T09:50:42.408Z,8.98
2023-04-27T09:53:12.039Z,8.73
2023-04-27T09:55:50.492Z,7.72
2023-04-27T09:58:43.661Z,7.95
2023-04-27T10:01:37.306Z,6.78
2023-04-27T10:04:41.764Z,7.70
2023-04-27T10:07:15.266Z,8.57
2023-04-27T10:09:44.846Z,8.60
2023-04-27T10:12:21.626Z,7.78
2023-04-27T10:14:58.916Z,8.55
2023-04-27T10:17:34.014Z,8.90
2023-04-27T10:20:02.282Z,9.05
2023-04-27T10:22:42.996Z,8.65
2023-04-27T10:25:29.756Z,7.93
2023-04-27T10:27:59.329Z,8.90
2023-04-27T10:30:31.767Z,8.57
2023-04-27T10:33:03.976Z,8.55
2023-04-27T10:35:38.327Z,8.15
2023-04-27T10:38:22.672Z,9.20
2023-04-27T10:41:02.615Z,8.85
2023-04-27T10:43:31.749Z,7.18
2023-04-27T10:46:39.592Z,7.70
2023-04-27T10:49:09.729Z,9.45
2023-04-27T10:54:46.380Z,6.65
2023-04-27T10:57:13.076Z,7.22
2023-04-27T10:59:51.296Z,8.20
2023-04-27T11:02:24.995Z,7.32
2023-04-27T11:04:51.682Z,7.15
2023-04-27T11:07:26.430Z,5.80
2023-04-27T11:09:53.182Z,6.07
2023-04-27T11:12:19.909Z,7.30
2023-04-27T11:14:46.546Z,7.30
2023-04-27T11:17:13.369Z,7.78
2023-04-27T11:19:47.821Z,7.95
2023-04-27T11:22:18.834Z,6.97
2023-04-27T11:24:50.019Z,19.65
2023-04-27T11:27:17.877Z,7.60
2023-04-27T11:29:44.854Z,6.50
2023-04-27T11:32:21.919Z,9.13
2023-04-27T11:34:53.667Z,7.00
2023-04-27T11:37:25.354Z,6.20
2023-04-27T11:39:54.196Z,7.13
2023-04-27T11:42:26.373Z,6.68
2023-04-27T11:45:01.099Z,7.57
2023-04-27T11:47:29.177Z,7.25
2023-04-27T11:50:01.065Z,6.70
2023-04-27T11:52:35.742Z,7.15
2023-04-27T11:55:06.082Z,7.95
2023-04-27T11:57:34.004Z,7.95
2023-04-27T12:00:02.135Z,7.07
2023-04-27T12:02:32.090Z,7.50
2023-04-27T12:04:59.828Z,7.47
2023-04-27T12:07:26.917Z,7.13
2023-04-27T12:09:53.319Z,7.95
2023-04-27T12:12:22.389Z,6.97
2023-04-27T12:14:49.902Z,7.75
2023-04-27T12:17:16.575Z,12.13
2023-04-27T12:19:43.086Z,11.00
2023-04-27T12:22:09.664Z,6.82
2023-04-27T12:24:37.011Z,8.52
2023-04-27T12:27:04.301Z,8.93
2023-04-27T12:33:50.113Z,6.32
2023-04-27T12:40:08.970Z,6.72
2023-04-27T12:42:35.724Z,6.50
2023-04-27T12:45:02.143Z,6.50
2023-04-27T12:47:49.839Z,6.43
2023-04-27T12:50:15.741Z,6.85
2023-04-27T12:52:42.135Z,7.30
2023-04-27T12:55:17.983Z,7.20
2023-04-27T12:57:53.574Z,7.25
2023-04-27T13:00:20.526Z,5.95
2023-04-27T13:02:46.997Z,6.88
2023-04-27T13:05:13.494Z,8.63
2023-04-27T13:07:39.885Z,8.07
2023-04-27T13:10:08.024Z,7.60
2023-04-27T13:12:34.483Z,8.63
2023-04-27T13:15:01.015Z,8.10
2023-04-27T13:17:27.472Z,7.35
2023-04-27T13:19:55.175Z,7.90
2023-04-27T13:22:21.585Z,8.85
2023-04-27T13:24:47.915Z,7.25
2023-04-27T13:27:14.292Z,8.02
2023-04-27T13:29:40.760Z,7.50
2023-04-27T13:32:07.195Z,8.30
2023-04-27T13:34:33.574Z,11.80
2023-04-27T13:37:00.171Z,8.25
2023-04-27T13:39:26.550Z,7.78
2023-04-27T13:41:53.967Z,8.32
2023-04-27T13:44:20.347Z,11.20
2023-04-27T13:46:46.795Z,8.35
2023-04-27T13:49:13.321Z,8.65
2023-04-27T13:51:40.517Z,7.95
2023-04-27T13:54:06.908Z,9.70
2023-04-27T13:56:33.268Z,9.65
2023-04-27T13:59:00.273Z,10.07
2023-04-27T14:01:27.122Z,9.63
2023-04-27T14:03:53.946Z,10.52
2023-04-27T14:06:20.579Z,10.18
2023-04-27T14:08:47.031Z,9.25
2023-04-27T14:11:13.511Z,11.98
2023-04-27T14:13:39.848Z,8.57
2023-04-27T14:16:07.113Z,11.63
2023-04-27T14:18:33.616Z,10.45
2023-04-27T14:21:00.076Z,12.98
2023-04-27T14:23:26.530Z,10.48
2023-04-27T14:25:53.033Z,8.02
2023-04-27T14:28:19.350Z,8.48
2023-04-27T14:30:45.878Z,8.27
2023-04-27T14:33:12.344Z,9.45
2023-04-27T14:35:38.807Z,10.45
2023-04-27T14:38:05.402Z,10.63
2023-04-27T14:40:32.246Z,9.88
2023-04-27T14:42:58.818Z,9.48
2023-04-27T14:45:29.027Z,17.40
2023-04-27T14:48:00.785Z,10.68
2023-04-27T14:50:28.088Z,9.50
2023-04-27T14:52:58.341Z,14.73
2023-04-27T14:55:24.972Z,7.80
2023-04-27T14:57:51.424Z,11.50
2023-04-27T15:00:18.044Z,8.48
2023-04-27T15:02:44.549Z,8.85
2023-04-27T15:05:11.025Z,8.70
2023-04-27T15:07:37.429Z,10.10
2023-04-27T15:10:04.350Z,8.68
2023-04-27T15:12:30.699Z,9.35
2023-04-27T15:14:57.065Z,9.45
2023-04-27T15:17:23.971Z,9.45
2023-04-27T15:19:51.618Z,10.20
2023-04-27T15:22:18.011Z,11.60
2023-04-27T15:24:44.378Z,9.75
2023-04-27T15:27:10.979Z,10.30
2023-04-27T15:29:37.382Z,9.05
2023-04-27T15:32:04.140Z,8.85
2023-04-27T15:34:31.005Z,8.82
2023-04-27T15:36:57.711Z,10.70
2023-04-27T15:39:24.030Z,10.38
2023-04-27T15:41:50.340Z,13.20
2023-04-27T15:44:16.827Z,11.10
2023-04-27T15:46:43.357Z,10.20
2023-04-27T15:49:12.297Z,12.38
2023-04-27T15:51:38.844Z,11.25
2023-04-27T15:54:05.410Z,10.70
2023-04-27T15:56:31.918Z,11.07
2023-04-27T15:58:58.321Z,9.93
2023-04-27T16:01:25.902Z,12.40
2023-04-27T16:03:52.428Z,10.13
2023-04-27T16:06:18.800Z,11.27
2023-04-27T16:08:45.272Z,9.90
2023-04-27T16:11:12.946Z,9.77
2023-04-27T16:13:39.817Z,11.48
2023-04-27T16:16:08.483Z,10.18
2023-04-27T16:18:36.481Z,9.60
2023-04-27T16:21:03.947Z,11.07
2023-04-27T16:23:30.550Z,11.73
2023-04-27T16:25:57.297Z,11.18
2023-04-27T16:28:23.662Z,10.70
2023-04-27T16:30:52.773Z,11.50
2023-04-27T16:33:19.817Z,11.52
2023-04-27T16:35:47.093Z,10.23
2023-04-27T16:38:13.805Z,10.45
2023-04-27T16:40:40.406Z,9.70
2023-04-27T16:43:06.770Z,9.70
2023-04-27T16:45:34.029Z,10.07
2023-04-27T16:48:02.059Z,12.75
2023-04-27T16:50:32.399Z,11.30
2023-04-27T16:53:06.865Z,12.30
2023-04-27T16:55:34.352Z,12.07
2023-04-27T16:58:01.149Z,10.50
2023-04-27T17:00:28.679Z,10.18
2023-04-27T17:02:55.492Z,9.35
2023-04-27T17:05:22.000Z,15.65
2023-04-27T17:07:48.380Z,9.10
2023-04-27T17:10:16.427Z,8.48
2023-04-27T17:12:42.786Z,9.90
2023-04-27T17:15:10.747Z,10.10
2023-04-27T17:17:37.210Z,11.60
2023-04-27T17:20:06.566Z,10.82
2023-04-27T17:22:33.010Z,9.05
2023-04-27T17:24:59.401Z,8.90
2023-04-27T17:27:26.008Z,9.20
2023-04-27T17:29:54.406Z,9.93
2023-04-27T17:32:20.896Z,11.30
2023-04-27T17:34:47.403Z,9.57
2023-04-27T17:37:14.763Z,12.98
2023-04-27T17:39:41.454Z,9.63
2023-04-27T17:42:12.140Z,9.75
2023-04-27T17:44:41.047Z,9.63
2023-04-27T17:47:08.298Z,10.23
2023-04-27T17:49:35.042Z,9.60
2023-04-27T17:52:01.439Z,9.18
2023-04-27T17:54:29.928Z,8.98
2023-04-27T17:56:56.602Z,10.13
2023-04-27T17:59:23.119Z,8.40
2023-04-27T18:01:49.621Z,9.90
2023-04-27T18:04:16.194Z,9.05
2023-04-27T18:06:42.651Z,10.32
2023-04-27T18:09:08.974Z,8.40
2023-04-27T18:11:36.160Z,9.40
2023-04-27T18:14:02.585Z,8.43
2023-04-27T18:16:29.219Z,8.90
2023-04-27T18:18:55.696Z,8.63
2023-04-27T18:21:22.157Z,9.13
2023-04-27T18:23:48.595Z,8.75
2023-04-27T18:26:15.004Z,8.38
2023-04-27T18:28:41.751Z,8.30
2023-04-27T18:31:18.213Z,8.15
2023-04-27T18:33:45.300Z,9.23
2023-04-27T18:36:11.955Z,7.72
2023-04-27T18:38:38.652Z,7.38
2023-04-27T18:41:05.031Z,7.70
2023-04-27T18:43:34.819Z,9.27
2023-04-27T18:46:01.201Z,7.03
2023-04-27T18:48:27.632Z,8.02
2023-04-27T18:50:54.148Z,7.95
2023-04-27T18:53:21.110Z,9.85
2023-04-27T18:55:47.480Z,10.38
2023-04-27T18:58:13.875Z,8.25
2023-04-27T19:00:40.453Z,8.50
2023-04-27T19:03:07.128Z,7.97
2023-04-27T19:05:33.559Z,7.43
2023-04-27T19:07:59.991Z,9.05
2023-04-27T19:10:26.443Z,9.10
2023-04-27T19:12:53.239Z,8.02
2023-04-27T19:15:19.629Z,12.82
2023-04-27T19:17:47.260Z,12.85
2023-04-27T19:20:16.932Z,8.40
2023-04-27T19:22:43.312Z,9.25
2023-04-27T19:25:09.994Z,10.02
2023-04-27T19:27:36.570Z,10.50
2023-04-27T19:30:04.229Z,8.77
2023-04-27T19:32:30.854Z,8.77
2023-04-27T19:34:58.710Z,8.10
2023-04-27T19:37:26.067Z,7.85
2023-04-27T19:39:52.669Z,8.30
2023-04-27T19:42:19.200Z,8.38
2023-04-27T19:44:45.834Z,8.65
2023-04-27T19:47:12.164Z,9.38
2023-04-27T19:49:38.649Z,8.73
2023-04-27T19:52:10.330Z,8.70
2023-04-27T19:54:38.045Z,8.63
2023-04-27T19:57:04.660Z,10.30
2023-04-27T19:59:30.989Z,10.45
2023-04-27T20:02:04.284Z,9.52
2023-04-27T20:04:31.101Z,9.80
2023-04-27T20:06:57.562Z,11.48
2023-04-27T20:09:23.927Z,10.07
2023-04-27T20:11:50.399Z,11.57
2023-04-27T20:14:17.049Z,10.35
2023-04-27T20:16:44.648Z,9.70
2023-04-27T20:19:11.226Z,9.98
2023-04-27T20:21:38.085Z,11.75
2023-04-27T20:24:04.640Z,9.15
2023-04-27T20:26:31.023Z,10.40
2023-04-27T20:28:57.363Z,9.45
2023-04-27T20:31:23.749Z,10.02
2023-04-27T20:33:50.104Z,8.88
2023-04-27T20:36:18.313Z,9.43
2023-04-27T20:38:45.354Z,11.43
2023-04-27T20:41:12.252Z,9.93
2023-04-27T20:43:41.637Z,9.38
2023-04-27T20:46:08.112Z,9.25
2023-04-27T20:48:34.623Z,8.98
2023-04-27T20:51:01.084Z,9.52
2023-04-27T20:53:27.859Z,8.15
2023-04-27T20:55:54.224Z,8.45
2023-04-27T20:58:20.696Z,9.27
2023-04-27T21:00:47.038Z,9.65
2023-04-27T21:03:13.584Z,9.18
2023-04-27T21:05:41.117Z,9.07
2023-04-27T21:08:07.538Z,9.20
2023-04-27T21:10:35.308Z,9.30
2023-04-27T21:13:03.138Z,10.02
2023-04-27T21:15:29.684Z,10.73
2023-04-27T21:17:56.058Z,9.20
2023-04-27T21:20:22.456Z,9.95
2023-04-27T21:22:48.788Z,9.30
2023-04-27T21:25:15.123Z,10.15
2023-04-27T21:27:41.618Z,9.65
2023-04-27T21:30:08.687Z,10.82
2023-04-27T21:32:35.093Z,9.75
2023-04-27T21:35:01.578Z,10.93
2023-04-27T21:37:27.941Z,9.93
2023-04-27T21:39:54.300Z,9.88
2023-04-27T21:42:20.674Z,9.98
2023-04-27T21:44:47.066Z,9.93
2023-04-27T21:47:13.417Z,9.95
2023-04-27T21:49:39.779Z,10.63
2023-04-27T21:52:06.160Z,10.52
2023-04-27T21:54:32.514Z,10.23
2023-04-27T21:56:58.879Z,11.10
2023-04-27T21:59:25.232Z,10.25
2023-04-27T22:01:51.626Z,11.45
2023-04-27T22:04:18.295Z,9.27
2023-04-27T22:06:45.382Z,10.18
2023-04-27T22:09:12.199Z,10.15
2023-04-27T22:11:38.760Z,9.57
2023-04-27T22:14:05.351Z,11.63
2023-04-27T22:16:31.682Z,11.35
2023-04-27T22:18:58.413Z,10.40
2023-04-27T22:21:24.968Z,11.00
2023-04-27T22:23:51.335Z,10.52
2023-04-27T22:26:17.828Z,9.93
2023-04-27T22:28:44.167Z,11.00
2023-04-27T22:31:10.642Z,10.57
2023-04-27T22:33:37.135Z,10.27
2023-04-27T22:36:03.637Z,13.15
2023-04-27T22:38:29.984Z,10.43
2023-04-27T22:40:56.332Z,12.68
2023-04-27T22:43:22.766Z,12.00
2023-04-27T22:45:49.199Z,15.27
2023-04-27T22:48:16.216Z,14.05
2023-04-27T22:50:42.594Z,14.02
2023-04-27T22:53:09.045Z,17.08
2023-04-27T22:55:35.447Z,14.63
2023-04-27T22:58:01.807Z,15.25
2023-04-27T23:00:28.270Z,15.52
2023-04-27T23:02:54.794Z,17.85
2023-04-27T23:05:22.064Z,17.25
2023-04-27T23:07:50.488Z,21.83
2023-04-27T23:10:18.714Z,20.70
2023-04-27T23:12:45.103Z,24.10
2023-04-27T23:15:11.558Z,17.98
2023-04-27T23:17:37.993Z,20.55
2023-04-27T23:20:26.757Z,21.13
2023-04-27T23:22:54.910Z,22.65
2023-04-27T23:25:21.599Z,23.85
2023-04-27T23:27:49.883Z,25.45
2023-04-27T23:30:17.657Z,23.75
2023-04-27T23:32:44.060Z,20.02
2023-04-27T23:35:10.532Z,18.85
2023-04-27T23:37:36.852Z,18.42
2023-04-27T23:40:04.167Z,17.77
2023-04-27T23:42:30.511Z,17.33
2023-04-27T23:44:57.509Z,17.15
2023-04-27T23:47:23.826Z,17.75
2023-04-27T23:49:50.314Z,17.08
2023-04-27T23:52:16.774Z,17.27
2023-04-27T23:54:43.160Z,18.00
2023-04-27T23:57:09.762Z,17.17
2023-04-27T23:59:36.359Z,16.92
